createdAt,value
2019-03-06T00:01:35.631Z,100.00
2019-03-06T00:04:04.979Z,100.00
2019-03-06T00:06:34.453Z,100.00
2019-03-06T00:11:59.263Z,100.00
2019-03-06T00:14:28.972Z,100.00
2019-03-06T00:17:00.007Z,100.00
2019-03-06T00:19:29.314Z,100.00
2019-03-06T00:21:58.614Z,100.00
2019-03-06T00:24:47.423Z,100.00
2019-03-06T00:27:16.729Z,100.00
2019-03-06T00:29:46.312Z,100.00
2019-03-06T00:37:41.810Z,100.00
2019-03-06T00:43:08.376Z,100.00
2019-03-06T00:45:37.845Z,100.00
2019-03-06T00:48:07.184Z,100.00
2019-03-06T00:50:36.649Z,100.00
2019-03-06T00:53:06.004Z,100.00
2019-03-06T00:55:35.309Z,100.00
2019-03-06T00:58:04.763Z,100.00
2019-03-06T01:00:34.040Z,100.00
2019-03-06T01:05:58.289Z,100.00
2019-03-06T01:11:36.200Z,100.00
2019-03-06T01:14:05.917Z,100.00
2019-03-06T01:16:35.191Z,100.00
2019-03-06T01:19:04.978Z,100.00
2019-03-06T01:21:34.278Z,100.00
2019-03-06T01:24:03.794Z,100.00
2019-03-06T01:26:33.056Z,100.00
2019-03-06T01:29:02.347Z,100.00
2019-03-06T01:31:31.636Z,100.00
2019-03-06T01:34:19.873Z,100.00
2019-03-06T01:37:08.095Z,100.00
2019-03-06T01:39:56.296Z,100.00
2019-03-06T01:42:44.475Z,100.00
2019-03-06T01:45:13.945Z,100.00
2019-03-06T01:48:02.291Z,100.00
2019-03-06T01:50:52.322Z,100.00
2019-03-06T01:53:21.589Z,100.00
2019-03-06T01:55:50.996Z,100.00
2019-03-06T01:58:20.373Z,100.00
2019-03-06T02:00:49.860Z,100.00
2019-03-06T02:03:19.194Z,100.00
2019-03-06T02:05:48.515Z,100.00
2019-03-06T02:08:38.228Z,100.00
2019-03-06T02:11:07.752Z,100.00
2019-03-06T02:13:37.253Z,100.00
2019-03-06T02:16:06.517Z,100.00
2019-03-06T02:18:36.123Z,100.00
2019-03-06T02:21:05.400Z,100.00
2019-03-06T02:23:35.012Z,100.00
2019-03-06T02:26:04.274Z,100.00
2019-03-06T02:31:09.122Z,100.00
2019-03-06T02:33:38.445Z,100.00
2019-03-06T02:36:08.156Z,100.00
2019-03-06T02:38:37.496Z,100.00
2019-03-06T02:41:06.968Z,100.00
2019-03-06T02:43:36.413Z,100.00
2019-03-06T02:46:06.097Z,100.00
2019-03-06T02:48:35.391Z,100.00
2019-03-06T02:51:05.119Z,100.00
2019-03-06T02:53:34.410Z,100.00
2019-03-06T02:56:05.576Z,100.00
2019-03-06T02:58:53.769Z,100.00
2019-03-06T03:01:41.937Z,100.00
2019-03-06T03:04:49.076Z,100.00
2019-03-06T03:07:19.769Z,100.00
2019-03-06T03:09:49.075Z,100.00
2019-03-06T03:12:18.365Z,100.00
2019-03-06T03:14:47.658Z,100.00
2019-03-06T03:17:17.256Z,100.00
2019-03-06T03:19:46.821Z,100.00
2019-03-06T03:22:16.450Z,100.00
2019-03-06T03:24:45.734Z,100.00
2019-03-06T03:27:15.198Z,100.00
2019-03-06T03:29:44.510Z,100.00
2019-03-06T03:32:14.229Z,100.00
2019-03-06T03:34:43.530Z,100.00
2019-03-06T03:37:13.022Z,100.00
2019-03-06T03:45:25.409Z,100.00
2019-03-06T03:47:54.694Z,100.00
2019-03-06T03:50:37.280Z,100.00
2019-03-06T03:53:06.574Z,100.00
2019-03-06T03:55:36.080Z,100.00
2019-03-06T03:58:05.396Z,100.00
2019-03-06T04:00:35.184Z,100.00
2019-03-06T04:03:04.451Z,100.00
2019-03-06T04:05:33.950Z,100.00
2019-03-06T04:08:22.482Z,100.00
2019-03-06T04:11:11.014Z,100.00
2019-03-06T04:13:40.314Z,100.00
2019-03-06T04:18:58.263Z,100.00
2019-03-06T04:21:27.551Z,100.00
2019-03-06T04:23:57.005Z,100.00
2019-03-06T04:29:33.781Z,100.00
2019-03-06T04:32:03.061Z,100.00
2019-03-06T04:37:20.695Z,100.00
2019-03-06T04:39:49.977Z,100.00
2019-03-06T04:42:19.324Z,100.00
2019-03-06T04:44:50.391Z,100.00
2019-03-06T04:47:19.855Z,100.00
2019-03-06T04:49:52.785Z,100.00
2019-03-06T04:52:20.359Z,100.00
2019-03-06T04:54:49.647Z,100.00
2019-03-06T04:57:19.212Z,100.00
2019-03-06T04:59:48.698Z,100.00
2019-03-06T05:02:18.294Z,100.00
2019-03-06T05:04:47.601Z,100.00
2019-03-06T05:10:11.321Z,100.00
2019-03-06T05:12:40.726Z,100.00
2019-03-06T05:15:10.288Z,100.00
2019-03-06T05:20:21.173Z,100.00
2019-03-06T05:23:09.514Z,100.00
2019-03-06T05:25:38.829Z,100.00
2019-03-06T05:28:08.114Z,100.00
2019-03-06T05:30:37.405Z,100.00
2019-03-06T05:33:07.282Z,100.00
2019-03-06T05:35:48.307Z,100.00
2019-03-06T05:38:39.145Z,100.00
2019-03-06T05:41:08.424Z,100.00
2019-03-06T05:43:37.841Z,100.00
2019-03-06T05:46:07.127Z,100.00
2019-03-06T05:48:36.708Z,100.00
2019-03-06T05:51:05.995Z,100.00
2019-03-06T05:53:35.506Z,100.00
2019-03-06T05:56:04.841Z,100.00
2019-03-06T05:58:34.317Z,100.00
2019-03-06T06:01:03.611Z,100.00
2019-03-06T06:03:32.979Z,100.00
2019-03-06T06:06:21.484Z,100.00
2019-03-06T06:08:50.811Z,100.00
2019-03-06T06:11:20.180Z,100.00
2019-03-06T06:13:49.515Z,100.00
2019-03-06T06:16:19.102Z,100.00
2019-03-06T06:18:48.475Z,100.00
2019-03-06T06:21:36.665Z,100.00
2019-03-06T06:24:10.731Z,100.00
2019-03-06T06:26:40.030Z,100.00
2019-03-06T06:29:09.319Z,100.00
2019-03-06T06:31:38.621Z,100.00
2019-03-06T06:34:08.233Z,100.00
2019-03-06T06:36:37.553Z,100.00
2019-03-06T06:39:07.446Z,100.00
2019-03-06T06:41:55.791Z,100.00
2019-03-06T06:44:27.124Z,100.00
2019-03-06T06:47:15.364Z,100.00
2019-03-06T06:49:44.727Z,100.00
2019-03-06T06:52:35.960Z,100.00
2019-03-06T06:55:43.256Z,100.00
2019-03-06T06:58:50.553Z,100.00
2019-03-06T07:05:30.648Z,100.00
2019-03-06T07:08:18.833Z,100.00
2019-03-06T07:11:07.045Z,100.00
2019-03-06T07:13:42.798Z,100.00
2019-03-06T07:16:31.108Z,100.00
2019-03-06T07:19:11.907Z,100.00
2019-03-06T07:22:00.131Z,100.00
2019-03-06T07:24:48.312Z,100.00
2019-03-06T07:27:36.513Z,100.00
2019-03-06T07:33:26.307Z,100.00
2019-03-06T07:36:15.786Z,100.00
2019-03-06T07:38:45.250Z,100.00
2019-03-06T07:41:52.479Z,100.00
2019-03-06T07:44:40.962Z,100.00
2019-03-06T07:47:29.325Z,100.00
2019-03-06T07:50:05.036Z,100.00
2019-03-06T07:52:53.234Z,100.00
2019-03-06T07:55:41.732Z,100.00
2019-03-06T07:58:49.044Z,100.00
2019-03-06T08:01:18.413Z,100.00
2019-03-06T08:04:01.254Z,100.00
2019-03-06T08:06:30.640Z,100.00
2019-03-06T08:08:59.950Z,100.00
2019-03-06T08:11:48.244Z,100.00
2019-03-06T08:14:36.728Z,100.00
2019-03-06T08:17:23.107Z,100.00
2019-03-06T08:20:11.564Z,100.00
2019-03-06T08:22:59.890Z,100.00
2019-03-06T08:25:49.103Z,100.00
2019-03-06T08:28:18.983Z,100.00
2019-03-06T08:30:59.581Z,100.00
2019-03-06T08:33:29.787Z,100.00
2019-03-06T08:35:59.540Z,100.00
2019-03-06T08:38:29.090Z,100.00
2019-03-06T08:41:04.382Z,100.00
2019-03-06T08:43:30.586Z,100.00
2019-03-06T08:46:18.816Z,100.00
2019-03-06T08:49:08.218Z,100.00
2019-03-06T08:51:57.242Z,100.00
2019-03-06T08:54:46.366Z,100.00
2019-03-06T08:57:25.652Z,100.00
2019-03-06T09:00:13.914Z,100.00
2019-03-06T09:03:02.469Z,100.00
2019-03-06T09:05:50.707Z,100.00
2019-03-06T09:09:02.117Z,100.00
2019-03-06T09:11:49.952Z,100.00
2019-03-06T09:14:38.144Z,100.00
2019-03-06T09:17:26.814Z,100.00
2019-03-06T09:20:15.020Z,100.00
2019-03-06T09:23:03.457Z,100.00
2019-03-06T09:25:51.750Z,100.00
2019-03-06T09:28:49.169Z,100.00
2019-03-06T09:31:56.330Z,100.00
2019-03-06T09:34:44.600Z,100.00
2019-03-06T09:37:30.732Z,100.00
2019-03-06T09:40:38.081Z,100.00
2019-03-06T09:43:26.281Z,100.00
2019-03-06T09:46:14.484Z,100.00
2019-03-06T09:49:10.898Z,100.00
2019-03-06T09:51:41.174Z,100.00
2019-03-06T09:54:27.982Z,100.00
2019-03-06T09:57:16.931Z,100.00
2019-03-06T10:00:05.183Z,100.00
2019-03-06T10:02:53.384Z,100.00
2019-03-06T10:05:41.654Z,100.00
2019-03-06T10:08:30.218Z,100.00
2019-03-06T10:11:20.213Z,100.00
2019-03-06T10:14:08.422Z,100.00
2019-03-06T10:16:56.601Z,100.00
2019-03-06T10:19:45.602Z,100.00
2019-03-06T10:22:14.900Z,100.00
2019-03-06T10:24:44.292Z,100.00
2019-03-06T10:27:13.578Z,100.00
2019-03-06T10:29:43.168Z,100.00
2019-03-06T10:32:23.942Z,100.00
2019-03-06T10:34:55.032Z,100.00
2019-03-06T10:37:24.393Z,100.00
2019-03-06T10:39:53.977Z,100.00
2019-03-06T10:42:23.317Z,100.00
2019-03-06T10:44:52.632Z,100.00
2019-03-06T10:47:22.052Z,100.00
2019-03-06T10:49:51.381Z,100.00
2019-03-06T10:52:20.703Z,100.00
2019-03-06T10:54:50.029Z,100.00
2019-03-06T10:57:19.323Z,100.00
2019-03-06T10:59:48.758Z,100.00
2019-03-06T11:02:18.159Z,100.00
2019-03-06T11:05:06.321Z,100.00
2019-03-06T11:07:35.815Z,100.00
2019-03-06T11:10:44.498Z,100.00
2019-03-06T11:13:14.006Z,100.00
2019-03-06T11:16:22.640Z,100.00
2019-03-06T11:18:52.142Z,100.00
2019-03-06T11:21:21.518Z,100.00
2019-03-06T11:23:51.103Z,100.00
2019-03-06T11:26:20.384Z,100.00
2019-03-06T11:28:49.992Z,100.00
2019-03-06T11:31:19.486Z,100.00
2019-03-06T11:33:49.096Z,100.00
2019-03-06T11:39:32.885Z,100.00
2019-03-06T11:42:02.273Z,100.00
2019-03-06T11:44:31.621Z,100.00
2019-03-06T11:47:01.398Z,100.00
2019-03-06T11:49:32.195Z,100.00
2019-03-06T11:52:01.528Z,100.00
2019-03-06T11:57:19.276Z,100.00
2019-03-06T11:59:49.055Z,100.00
2019-03-06T12:02:38.859Z,100.00
2019-03-06T12:08:17.723Z,100.00
2019-03-06T12:13:42.169Z,100.00
2019-03-06T12:16:50.797Z,100.00
2019-03-06T12:19:20.255Z,100.00
2019-03-06T12:21:49.562Z,100.00
2019-03-06T12:24:19.009Z,100.00
2019-03-06T12:26:48.307Z,100.00
2019-03-06T12:29:17.806Z,100.00
2019-03-06T12:32:07.204Z,100.00
2019-03-06T12:34:36.566Z,100.00
2019-03-06T12:37:06.116Z,100.00
2019-03-06T12:39:35.416Z,100.00
2019-03-06T12:42:23.825Z,100.00
2019-03-06T12:44:53.312Z,100.00
2019-03-06T12:47:22.598Z,100.00
2019-03-06T12:49:52.081Z,100.00
2019-03-06T12:52:21.545Z,100.00
2019-03-06T12:54:50.914Z,100.00
2019-03-06T12:57:20.238Z,100.00
2019-03-06T12:59:49.642Z,100.00
2019-03-06T13:02:18.923Z,100.00
2019-03-06T13:04:48.199Z,100.00
2019-03-06T13:07:18.186Z,99.61
2019-03-06T13:09:48.541Z,99.58
2019-03-06T13:15:27.191Z,99.49
2019-03-06T13:17:57.242Z,99.61
2019-03-06T13:20:26.504Z,99.70
2019-03-06T13:22:55.880Z,99.63
2019-03-06T13:25:45.680Z,99.32
2019-03-06T13:28:14.979Z,99.65
2019-03-06T13:30:44.514Z,99.30
2019-03-06T13:33:32.878Z,99.25
2019-03-06T13:39:05.944Z,99.15
2019-03-06T13:41:28.496Z,98.94
2019-03-06T13:43:58.038Z,99.11
2019-03-06T13:46:29.046Z,99.02
2019-03-06T13:48:58.487Z,98.76
2019-03-06T13:51:27.864Z,99.13
2019-03-06T13:59:19.967Z,98.79
2019-03-06T14:02:28.602Z,99.06
2019-03-06T14:04:57.920Z,98.81
2019-03-06T14:07:27.217Z,99.21
2019-03-06T14:09:56.654Z,99.16
2019-03-06T14:12:25.915Z,99.62
2019-03-06T14:14:55.249Z,99.16
2019-03-06T14:17:43.533Z,99.27
2019-03-06T14:20:13.094Z,99.22
2019-03-06T14:22:42.394Z,99.01
2019-03-06T14:25:32.258Z,99.39
2019-03-06T14:28:12.841Z,99.73
2019-03-06T14:31:23.221Z,99.44
2019-03-06T14:36:47.625Z,99.11
2019-03-06T14:39:36.135Z,99.68
2019-03-06T14:42:05.802Z,99.68
2019-03-06T14:44:35.320Z,99.42
2019-03-06T14:47:04.647Z,99.91
2019-03-06T14:49:35.817Z,99.88
2019-03-06T14:52:24.268Z,99.85
2019-03-06T14:54:53.612Z,100.00
2019-03-06T14:57:23.019Z,99.71
2019-03-06T14:59:52.519Z,99.77
2019-03-06T15:02:21.811Z,99.92
2019-03-06T15:04:51.248Z,99.67
2019-03-06T15:07:20.586Z,99.61
2019-03-06T15:09:51.409Z,99.94
2019-03-06T15:12:20.763Z,99.97
2019-03-06T15:15:09.047Z,100.00
2019-03-06T15:17:38.605Z,100.00
2019-03-06T15:20:10.197Z,99.91
2019-03-06T15:22:39.517Z,100.00
2019-03-06T15:25:12.310Z,100.00
2019-03-06T15:30:29.856Z,100.00
2019-03-06T15:32:59.198Z,100.00
2019-03-06T15:35:28.504Z,100.00
2019-03-06T15:43:30.214Z,100.00
2019-03-06T15:45:59.510Z,100.00
2019-03-06T15:48:28.814Z,100.00
2019-03-06T15:50:58.251Z,100.00
2019-03-06T15:53:27.557Z,100.00
2019-03-06T15:56:16.205Z,100.00
2019-03-06T15:58:45.615Z,100.00
2019-03-06T16:01:14.895Z,100.00
2019-03-06T16:03:44.392Z,100.00
2019-03-06T16:06:20.264Z,100.00
2019-03-06T16:08:45.018Z,100.00
2019-03-06T16:11:14.389Z,100.00
2019-03-06T16:13:43.772Z,100.00
2019-03-06T16:16:13.070Z,100.00
2019-03-06T16:18:42.760Z,100.00
2019-03-06T16:21:12.221Z,100.00
2019-03-06T16:23:41.530Z,100.00
2019-03-06T16:26:11.026Z,100.00
2019-03-06T16:28:40.413Z,100.00
2019-03-06T16:34:18.567Z,100.00
2019-03-06T16:36:47.869Z,100.00
2019-03-06T16:42:26.250Z,100.00
2019-03-06T16:44:55.592Z,100.00
2019-03-06T16:50:35.587Z,100.00
2019-03-06T16:53:05.174Z,100.00
2019-03-06T16:55:34.488Z,100.00
2019-03-06T16:58:04.192Z,100.00
2019-03-06T17:03:44.391Z,100.00
2019-03-06T17:06:13.866Z,100.00
2019-03-06T17:08:43.440Z,100.00
2019-03-06T17:11:12.985Z,100.00
2019-03-06T17:13:42.587Z,100.00
2019-03-06T17:16:11.995Z,100.00
2019-03-06T17:18:41.483Z,100.00
2019-03-06T17:21:10.799Z,100.00
2019-03-06T17:23:40.281Z,100.00
2019-03-06T17:26:09.589Z,100.00
2019-03-06T17:28:39.111Z,100.00
2019-03-06T17:31:08.437Z,100.00
2019-03-06T17:33:37.901Z,100.00
2019-03-06T17:38:55.559Z,100.00
2019-03-06T17:41:25.269Z,100.00
2019-03-06T17:44:02.498Z,100.00
2019-03-06T17:46:31.903Z,100.00
2019-03-06T17:49:01.493Z,100.00
2019-03-06T17:51:30.778Z,100.00
2019-03-06T17:54:00.384Z,100.00
2019-03-06T17:56:29.683Z,100.00
2019-03-06T17:58:59.249Z,100.00
2019-03-06T18:01:28.710Z,100.00
2019-03-06T18:09:35.565Z,100.00
2019-03-06T18:12:05.040Z,100.00
2019-03-06T18:14:34.446Z,100.00
2019-03-06T18:17:03.764Z,100.00
2019-03-06T18:19:33.305Z,100.00
2019-03-06T18:22:02.610Z,100.00
2019-03-06T18:24:32.176Z,100.00
2019-03-06T18:27:01.546Z,100.00
2019-03-06T18:29:31.060Z,100.00
2019-03-06T18:32:00.333Z,100.00
2019-03-06T18:34:29.875Z,100.00
2019-03-06T18:36:59.152Z,100.00
2019-03-06T18:39:28.873Z,100.00
2019-03-06T18:41:59.663Z,100.00
2019-03-06T18:47:36.552Z,100.00
2019-03-06T18:50:07.011Z,100.00
2019-03-06T18:52:55.291Z,100.00
2019-03-06T18:55:24.612Z,100.00
2019-03-06T19:00:42.665Z,100.00
2019-03-06T19:03:11.998Z,100.00
2019-03-06T19:05:41.318Z,100.00
2019-03-06T19:08:10.627Z,100.00
2019-03-06T19:10:41.843Z,100.00
2019-03-06T19:13:12.447Z,100.00
2019-03-06T19:15:42.740Z,100.00
2019-03-06T19:18:51.391Z,100.00
2019-03-06T19:21:22.719Z,100.00
2019-03-06T19:23:52.182Z,100.00
2019-03-06T19:26:21.511Z,100.00
2019-03-06T19:28:51.031Z,100.00
2019-03-06T19:31:20.365Z,100.00
2019-03-06T19:33:49.847Z,100.00
2019-03-06T19:36:19.183Z,100.00
2019-03-06T19:38:48.858Z,100.00
2019-03-06T19:41:37.355Z,100.00
2019-03-06T19:44:06.873Z,100.00
2019-03-06T19:46:36.233Z,100.00
2019-03-06T19:49:05.811Z,100.00
2019-03-06T19:51:35.679Z,100.00
2019-03-06T19:54:05.062Z,100.00
2019-03-06T19:56:34.757Z,100.00
2019-03-06T19:59:04.108Z,100.00
2019-03-06T20:01:33.540Z,100.00
2019-03-06T20:04:02.844Z,100.00
2019-03-06T20:06:32.233Z,100.00
2019-03-06T20:09:01.552Z,100.00
2019-03-06T20:11:31.230Z,100.00
2019-03-06T20:14:00.647Z,100.00
2019-03-06T20:16:37.570Z,100.00
2019-03-06T20:19:10.567Z,100.00
2019-03-06T20:21:40.082Z,100.00
2019-03-06T20:24:09.671Z,100.00
2019-03-06T20:26:39.022Z,100.00
2019-03-06T20:29:09.059Z,100.00
2019-03-06T20:31:38.379Z,100.00
2019-03-06T20:34:28.264Z,100.00
2019-03-06T20:36:57.634Z,100.00
2019-03-06T20:39:27.319Z,100.00
2019-03-06T20:41:56.666Z,100.00
2019-03-06T20:44:26.317Z,100.00
2019-03-06T20:46:55.641Z,100.00
2019-03-06T20:49:25.298Z,100.00
2019-03-06T20:51:54.628Z,100.00
2019-03-06T20:54:24.271Z,100.00
2019-03-06T20:56:53.621Z,100.00
2019-03-06T20:59:23.229Z,100.00
2019-03-06T21:01:52.626Z,100.00
2019-03-06T21:04:22.153Z,100.00
2019-03-06T21:06:51.572Z,100.00
2019-03-06T21:09:21.297Z,100.00
2019-03-06T21:11:50.672Z,100.00
2019-03-06T21:14:20.270Z,100.00
2019-03-06T21:16:49.672Z,100.00
2019-03-06T21:19:19.143Z,100.00
2019-03-06T21:21:48.453Z,100.00
2019-03-06T21:24:18.046Z,100.00
2019-03-06T21:26:47.390Z,100.00
2019-03-06T21:29:17.190Z,100.00
2019-03-06T21:32:05.782Z,100.00
2019-03-06T21:34:35.101Z,100.00
2019-03-06T21:37:04.606Z,100.00
2019-03-06T21:39:33.997Z,100.00
2019-03-06T21:42:03.349Z,100.00
2019-03-06T21:44:32.717Z,100.00
2019-03-06T21:47:02.023Z,100.00
2019-03-06T21:49:31.316Z,100.00
2019-03-06T21:52:00.895Z,100.00
2019-03-06T21:54:49.236Z,100.00
2019-03-06T21:57:18.725Z,100.00
2019-03-06T21:59:48.026Z,100.00
2019-03-06T22:02:36.422Z,100.00
2019-03-06T22:05:05.929Z,100.00
2019-03-06T22:07:35.253Z,100.00
2019-03-06T22:12:59.745Z,100.00
2019-03-06T22:15:29.086Z,100.00
2019-03-06T22:17:58.426Z,100.00
2019-03-06T22:20:27.717Z,100.00
2019-03-06T22:22:57.236Z,100.00
2019-03-06T22:25:26.536Z,100.00
2019-03-06T22:27:55.931Z,100.00
2019-03-06T22:30:25.216Z,100.00
2019-03-06T22:33:13.536Z,100.00
2019-03-06T22:35:43.312Z,100.00
2019-03-06T22:38:12.599Z,100.00
2019-03-06T22:40:42.080Z,100.00
2019-03-06T22:43:11.416Z,100.00
2019-03-06T22:45:40.885Z,100.00
2019-03-06T22:48:10.157Z,100.00
2019-03-06T22:50:58.709Z,100.00
2019-03-06T22:53:28.205Z,100.00
2019-03-06T22:56:16.412Z,100.00
2019-03-06T22:58:45.747Z,100.00
2019-03-06T23:01:38.251Z,100.00
2019-03-06T23:04:30.943Z,100.00
2019-03-06T23:07:00.232Z,100.00
2019-03-06T23:09:48.614Z,100.00
2019-03-06T23:12:18.142Z,100.00
2019-03-06T23:14:47.429Z,100.00
2019-03-06T23:19:52.697Z,100.00
2019-03-06T23:22:34.898Z,100.00
2019-03-06T23:25:04.517Z,100.00
2019-03-06T23:27:34.001Z,100.00
2019-03-06T23:30:03.272Z,100.00
2019-03-06T23:32:32.837Z,100.00
2019-03-06T23:35:02.135Z,100.00
2019-03-06T23:37:31.472Z,100.00
2019-03-06T23:40:00.766Z,100.00
2019-03-06T23:42:30.074Z,100.00
2019-03-06T23:44:59.362Z,100.00
2019-03-06T23:47:28.834Z,100.00
2019-03-06T23:49:58.381Z,100.00
2019-03-06T23:52:32.287Z,100.00
2019-03-06T23:55:01.613Z,100.00
2019-03-06T23:57:31.182Z,100.00
